createdAt,value
2017-07-27T10:35:12.577Z,25.10
2017-07-27T10:37:38.636Z,22.00
2017-07-27T10:40:04.694Z,20.60
2017-07-27T10:42:30.767Z,20.10
2017-07-27T10:44:56.847Z,19.80
2017-07-27T10:47:22.885Z,19.70
2017-07-27T10:49:48.942Z,19.60
2017-07-27T10:52:15.014Z,19.60
2017-07-27T10:54:41.831Z,19.60
2017-07-27T10:57:07.891Z,19.60
2017-07-27T10:59:34.888Z,19.70
2017-07-27T11:02:00.959Z,19.60
2017-07-27T11:04:27.102Z,19.70
2017-07-27T11:06:53.149Z,19.70
2017-07-27T11:09:19.194Z,19.70
2017-07-27T11:11:45.253Z,19.70
2017-07-27T11:14:11.305Z,19.80
2017-07-27T11:16:37.366Z,19.80
2017-07-27T11:19:03.434Z,19.80
2017-07-27T11:21:30.351Z,19.90
2017-07-27T11:23:56.409Z,19.90
2017-07-27T11:26:22.457Z,19.90
2017-07-27T11:28:48.534Z,19.90
2017-07-27T11:31:14.602Z,20.00
2017-07-27T11:33:40.687Z,20.10
2017-07-27T11:36:06.762Z,20.10
2017-07-27T11:38:32.813Z,20.10
2017-07-27T11:40:58.862Z,20.10
2017-07-27T11:43:25.804Z,20.00
2017-07-27T11:45:51.859Z,20.00
2017-07-27T11:48:17.921Z,20.00
2017-07-27T11:50:44.005Z,20.00
2017-07-27T11:53:10.064Z,20.10
2017-07-27T11:55:36.139Z,20.00
2017-07-27T11:58:02.190Z,20.00
2017-07-27T12:00:28.245Z,20.00
2017-07-27T12:02:54.309Z,20.10
2017-07-27T12:05:21.495Z,20.10
2017-07-27T12:07:47.543Z,20.10
2017-07-27T12:10:13.607Z,20.10
2017-07-27T12:12:39.670Z,20.00
2017-07-27T12:15:05.723Z,20.00
2017-07-27T12:17:31.778Z,20.00
2017-07-27T12:19:57.843Z,20.00
2017-07-27T12:22:23.927Z,20.00
2017-07-27T12:24:50.000Z,20.00
2017-07-27T12:27:16.062Z,20.00
2017-07-27T12:29:42.115Z,20.00
2017-07-27T12:32:08.168Z,20.00
2017-07-27T12:34:34.254Z,20.00
2017-07-27T12:37:00.306Z,20.00
2017-07-27T12:39:26.362Z,19.90
2017-07-27T12:41:53.166Z,20.00
2017-07-27T12:44:19.222Z,19.90
2017-07-27T12:46:45.279Z,20.00
2017-07-27T12:49:11.364Z,20.00
2017-07-27T12:51:37.419Z,20.00
2017-07-27T12:54:03.462Z,20.00
2017-07-27T12:56:29.544Z,20.00
2017-07-27T12:58:55.614Z,20.00
2017-07-27T13:01:21.654Z,20.00
2017-07-27T13:03:47.709Z,20.10
2017-07-27T13:06:13.758Z,20.10
2017-07-27T13:08:39.812Z,20.10
2017-07-27T13:11:05.890Z,20.10
2017-07-27T13:13:31.962Z,20.10
2017-07-27T13:15:58.033Z,20.10
2017-07-27T13:18:24.095Z,20.10
2017-07-27T13:20:50.156Z,20.10
2017-07-27T13:23:16.217Z,20.10
2017-07-27T13:25:42.272Z,20.10
2017-07-27T13:28:08.317Z,20.10
2017-07-27T13:30:34.361Z,20.10
2017-07-27T13:33:00.414Z,20.10
2017-07-27T13:35:26.518Z,20.20
2017-07-27T13:37:52.561Z,20.20
2017-07-27T13:40:18.614Z,20.30
2017-07-27T13:42:44.674Z,20.30
2017-07-27T13:45:10.736Z,20.40
2017-07-27T13:47:36.805Z,20.40
2017-07-27T13:50:03.609Z,20.50
2017-07-27T13:52:29.670Z,20.50
2017-07-27T13:54:55.743Z,20.50
2017-07-27T13:57:21.826Z,20.50
2017-07-27T13:59:47.886Z,20.60
2017-07-27T14:02:13.944Z,20.60
2017-07-27T14:04:39.993Z,20.60
2017-07-27T14:07:06.058Z,20.60
2017-07-27T14:09:32.119Z,20.60
2017-07-27T14:11:58.183Z,20.70
2017-07-27T14:14:24.992Z,20.90
2017-07-27T14:16:51.079Z,20.80
2017-07-27T14:19:17.151Z,20.90
2017-07-27T14:21:43.210Z,20.90
2017-07-27T14:24:09.317Z,20.80
2017-07-27T14:26:35.385Z,20.80
2017-07-27T14:29:01.442Z,20.90
2017-07-27T14:31:27.529Z,20.90
2017-07-27T14:33:53.609Z,20.90
2017-07-27T14:36:19.695Z,21.00
2017-07-27T14:38:45.771Z,21.00
2017-07-27T14:41:11.859Z,21.10
2017-07-27T14:43:37.907Z,21.20
2017-07-27T14:46:03.973Z,21.20
2017-07-27T14:48:30.034Z,21.10
2017-07-27T14:50:56.106Z,21.10
2017-07-27T14:53:22.165Z,21.10
2017-07-27T14:55:48.265Z,21.10
2017-07-27T14:58:14.326Z,21.10
2017-07-27T15:00:40.397Z,21.10
2017-07-27T15:03:06.468Z,21.10
2017-07-27T15:05:32.543Z,21.10
2017-07-27T15:07:58.605Z,21.00
2017-07-27T15:10:24.680Z,21.00
2017-07-27T15:12:50.742Z,21.10
2017-07-27T15:15:16.809Z,21.10
2017-07-27T15:17:42.914Z,21.10
2017-07-27T15:20:08.965Z,21.10
2017-07-27T15:22:35.017Z,21.10
2017-07-27T15:25:01.070Z,21.10
2017-07-27T15:27:27.130Z,21.10
2017-07-27T15:29:53.203Z,21.10
2017-07-27T15:32:19.258Z,21.10
2017-07-27T15:34:45.338Z,21.10
2017-07-27T15:37:11.398Z,21.10
2017-07-27T15:39:37.470Z,21.10
2017-07-27T15:42:03.531Z,21.10
2017-07-27T15:44:29.596Z,21.10
2017-07-27T15:46:55.650Z,21.10
2017-07-27T15:49:21.717Z,21.20
2017-07-27T15:51:47.774Z,21.20
2017-07-27T15:54:13.838Z,21.20
2017-07-27T15:56:39.897Z,21.20
2017-07-27T15:59:05.949Z,21.20
2017-07-27T16:01:32.019Z,21.20
2017-07-27T16:03:58.121Z,21.20
2017-07-27T16:06:24.197Z,21.20
2017-07-27T16:08:50.254Z,21.20
2017-07-27T16:11:16.313Z,21.10
2017-07-27T16:13:42.389Z,21.10
2017-07-27T16:16:08.451Z,21.10
2017-07-27T16:18:34.513Z,21.20
2017-07-27T16:21:00.566Z,21.10
2017-07-27T16:23:26.614Z,21.10
2017-07-27T16:25:52.676Z,21.10
2017-07-27T16:28:18.735Z,21.10
2017-07-27T16:30:44.800Z,21.10
2017-07-27T16:33:10.860Z,21.10
2017-07-27T16:35:36.919Z,21.10
2017-07-27T16:38:02.979Z,21.20
2017-07-27T16:40:29.033Z,21.10
2017-07-27T16:42:55.087Z,21.10
2017-07-27T16:45:21.153Z,21.10
2017-07-27T16:47:47.955Z,21.10
2017-07-27T16:50:14.022Z,21.10
2017-07-27T16:52:40.086Z,21.10
2017-07-27T16:55:06.146Z,21.10
2017-07-27T16:57:32.214Z,21.10
2017-07-27T16:59:58.273Z,21.10
2017-07-27T17:02:24.336Z,21.10
2017-07-27T17:04:50.398Z,21.10
2017-07-27T17:07:16.464Z,21.10
2017-07-27T17:09:42.570Z,21.10
2017-07-27T17:12:08.633Z,21.10
2017-07-27T17:14:34.681Z,21.10
2017-07-27T17:17:01.487Z,21.10
2017-07-27T17:19:27.537Z,21.10
2017-07-27T17:21:53.602Z,21.10
2017-07-27T17:24:19.719Z,21.10
2017-07-27T17:26:45.792Z,21.10
2017-07-27T17:29:11.878Z,21.10
2017-07-27T17:31:37.949Z,21.10
2017-07-27T17:34:04.832Z,21.10
2017-07-27T17:36:31.630Z,21.10
2017-07-27T17:38:57.682Z,21.10
2017-07-27T17:41:23.726Z,21.10
2017-07-27T17:43:49.777Z,21.10
2017-07-27T17:46:15.842Z,21.00
2017-07-27T17:48:41.978Z,21.00
2017-07-27T17:51:08.103Z,21.00
2017-07-27T17:53:34.189Z,21.00
2017-07-27T17:56:00.265Z,21.00
2017-07-27T17:58:26.321Z,21.00
2017-07-27T18:00:52.390Z,21.00
2017-07-27T18:03:24.453Z,21.00
2017-07-27T18:06:21.762Z,21.00
2017-07-27T18:09:19.005Z,21.00
2017-07-27T18:11:45.829Z,21.00
2017-07-27T18:14:11.902Z,20.90
2017-07-27T18:16:37.986Z,21.00
2017-07-27T18:19:04.061Z,21.00
2017-07-27T18:21:30.142Z,21.00
2017-07-27T18:23:56.241Z,20.90
2017-07-27T18:26:22.303Z,20.90
2017-07-27T18:28:48.366Z,20.90
2017-07-27T18:31:14.423Z,20.90
2017-07-27T18:33:40.510Z,20.90
2017-07-27T18:36:06.566Z,20.90
2017-07-27T18:38:32.646Z,20.90
2017-07-27T18:40:58.706Z,20.90
2017-07-27T18:43:24.767Z,20.90
2017-07-27T18:45:50.824Z,20.90
2017-07-27T18:48:16.907Z,20.90
2017-07-27T18:50:42.958Z,20.80
2017-07-27T18:53:09.009Z,20.80
2017-07-27T18:55:35.085Z,20.90
2017-07-27T18:58:01.153Z,20.80
2017-07-27T19:00:27.218Z,20.80
2017-07-27T19:02:53.274Z,20.80
2017-07-27T19:05:19.343Z,20.80
2017-07-27T19:07:45.397Z,20.80
2017-07-27T19:10:11.481Z,20.80
2017-07-27T19:12:37.539Z,20.80
2017-07-27T19:15:03.594Z,20.80
2017-07-27T19:17:29.670Z,20.80
2017-07-27T19:19:55.738Z,20.80
2017-07-27T19:22:21.802Z,20.80
2017-07-27T19:24:47.864Z,20.80
2017-07-27T19:27:14.666Z,20.70
2017-07-27T19:29:40.714Z,20.70
2017-07-27T19:32:06.782Z,20.70
2017-07-27T19:34:32.859Z,20.70
2017-07-27T19:36:58.942Z,20.70
2017-07-27T19:39:25.018Z,20.70
2017-07-27T19:41:51.074Z,20.70
2017-07-27T19:44:17.134Z,20.70
2017-07-27T19:46:43.196Z,20.70
2017-07-27T19:49:09.253Z,20.70
2017-07-27T19:51:35.333Z,20.70
2017-07-27T19:54:01.377Z,20.60
2017-07-27T19:56:27.452Z,20.70
2017-07-27T19:58:53.543Z,20.70
2017-07-27T20:01:20.350Z,20.60
2017-07-27T20:03:46.398Z,20.60
2017-07-27T20:06:12.492Z,20.60
2017-07-27T20:08:38.587Z,20.60
2017-07-27T20:11:04.651Z,20.60
2017-07-27T20:13:30.706Z,20.60
2017-07-27T20:15:56.765Z,20.60
2017-07-27T20:18:22.822Z,20.60
2017-07-27T20:20:48.866Z,20.60
2017-07-27T20:23:14.922Z,20.60
2017-07-27T20:25:41.721Z,20.60
2017-07-27T20:28:07.775Z,20.50
2017-07-27T20:30:33.830Z,20.50
2017-07-27T20:32:59.894Z,20.50
2017-07-27T20:35:25.938Z,20.50
2017-07-27T20:37:51.990Z,20.50
2017-07-27T20:40:18.791Z,20.50
2017-07-27T20:42:44.885Z,20.50
2017-07-27T20:45:10.962Z,20.50
2017-07-27T20:47:37.029Z,20.50
2017-07-27T20:50:03.081Z,20.50
2017-07-27T20:52:29.138Z,20.50
2017-07-27T20:54:55.181Z,20.50
2017-07-27T20:57:21.238Z,20.50
2017-07-27T20:59:47.293Z,20.50
2017-07-27T21:02:13.362Z,20.50
2017-07-27T21:04:39.409Z,20.50
2017-07-27T21:07:05.453Z,20.50
2017-07-27T21:09:31.505Z,20.50
2017-07-27T21:11:57.562Z,20.40
2017-07-27T21:14:23.625Z,20.40
2017-07-27T21:16:49.677Z,20.40
2017-07-27T21:19:15.743Z,20.40
2017-07-27T21:21:41.791Z,20.40
2017-07-27T21:24:07.842Z,20.40
2017-07-27T21:26:33.898Z,20.40
2017-07-27T21:28:59.963Z,20.40
2017-07-27T21:31:26.017Z,20.40
2017-07-27T21:33:52.070Z,20.40
2017-07-27T21:36:18.113Z,20.40
2017-07-27T21:38:44.190Z,20.30
2017-07-27T21:41:10.237Z,20.40
2017-07-27T21:43:36.307Z,20.40
2017-07-27T21:46:02.345Z,20.40
2017-07-27T21:48:28.397Z,20.40
2017-07-27T21:50:54.441Z,20.30
2017-07-27T21:53:20.531Z,20.30
2017-07-27T21:55:46.594Z,20.30
2017-07-27T21:58:12.642Z,20.30
2017-07-27T22:00:38.699Z,20.30
2017-07-27T22:03:04.752Z,20.30
2017-07-27T22:05:30.798Z,20.30
2017-07-27T22:07:56.838Z,20.30
2017-07-27T22:10:22.913Z,20.30
2017-07-27T22:12:48.984Z,20.30
2017-07-27T22:15:15.029Z,20.30
2017-07-27T22:17:41.122Z,20.30
2017-07-27T22:20:07.163Z,20.20
2017-07-27T22:22:33.209Z,20.20
2017-07-27T22:24:59.262Z,20.20
2017-07-27T22:27:25.354Z,20.20
2017-07-27T22:29:51.407Z,20.20
2017-07-27T22:32:17.463Z,20.20
2017-07-27T22:34:43.511Z,20.20
2017-07-27T22:37:09.557Z,20.20
2017-07-27T22:39:35.657Z,20.10
2017-07-27T22:42:01.702Z,20.10
2017-07-27T22:44:27.746Z,20.10
2017-07-27T22:46:53.798Z,20.10
2017-07-27T22:49:19.851Z,20.10
2017-07-27T22:51:45.890Z,20.10
2017-07-27T22:54:11.929Z,20.10
2017-07-27T22:56:37.970Z,20.10
2017-07-27T22:59:04.022Z,20.10
2017-07-27T23:01:30.097Z,20.10
2017-07-27T23:03:56.142Z,20.10
2017-07-27T23:06:22.197Z,20.10
2017-07-27T23:08:48.993Z,20.00
2017-07-27T23:11:15.042Z,20.00
2017-07-27T23:13:41.097Z,20.00
2017-07-27T23:16:07.145Z,20.00
2017-07-27T23:18:33.188Z,20.00
2017-07-27T23:20:59.234Z,20.10
2017-07-27T23:23:25.285Z,20.10
2017-07-27T23:25:51.327Z,20.10
2017-07-27T23:28:17.685Z,20.10
2017-07-27T23:30:43.739Z,20.00
2017-07-27T23:33:09.804Z,20.00
2017-07-27T23:35:36.601Z,20.00
2017-07-27T23:38:02.650Z,20.00
2017-07-27T23:40:28.700Z,20.00
2017-07-27T23:42:54.742Z,20.00
2017-07-27T23:45:20.803Z,19.90
2017-07-27T23:47:46.842Z,20.00
2017-07-27T23:50:12.894Z,20.00
2017-07-27T23:52:38.950Z,20.00
2017-07-27T23:55:05.002Z,20.00
2017-07-27T23:57:31.050Z,19.90
2017-07-27T23:59:57.111Z,19.90
